createdAt,value
2022-08-11T00:01:55.622Z,5.60
2022-08-11T00:04:26.371Z,4.90
2022-08-11T00:06:54.882Z,4.50
2022-08-11T00:09:38.930Z,4.05
2022-08-11T00:12:14.925Z,4.57
2022-08-11T00:14:42.889Z,4.03
2022-08-11T00:17:14.030Z,4.43
2022-08-11T00:20:12.714Z,3.90
2022-08-11T00:22:34.540Z,3.67
2022-08-11T00:25:14.996Z,3.40
2022-08-11T00:27:42.446Z,3.70
2022-08-11T00:30:11.979Z,3.70
2022-08-11T00:32:42.154Z,3.92
2022-08-11T00:35:53.627Z,3.72
2022-08-11T00:38:01.907Z,3.97
2022-08-11T00:40:41.682Z,3.83
2022-08-11T00:43:21.693Z,4.40
2022-08-11T00:46:41.418Z,4.10
2022-08-11T00:49:39.057Z,3.78
2022-08-11T00:52:49.935Z,3.88
2022-08-11T00:55:47.178Z,3.97
2022-08-11T00:59:34.171Z,3.42
2022-08-11T01:02:30.766Z,4.13
2022-08-11T01:05:21.339Z,4.68
2022-08-11T01:08:30.226Z,4.05
2022-08-11T01:11:29.606Z,4.20
2022-08-11T01:14:33.547Z,3.75
2022-08-11T01:17:36.124Z,3.80
2022-08-11T01:20:48.972Z,3.72
2022-08-11T01:24:09.688Z,4.45
2022-08-11T01:27:20.114Z,4.45
2022-08-11T01:30:21.024Z,4.93
2022-08-11T01:33:21.329Z,5.68
2022-08-11T01:36:20.767Z,5.45
2022-08-11T01:39:18.781Z,4.80
2022-08-11T01:42:18.317Z,4.50
2022-08-11T01:45:37.802Z,3.92
2022-08-11T01:48:21.714Z,4.13
2022-08-11T01:51:17.393Z,3.47
2022-08-11T01:53:55.215Z,4.00
2022-08-11T01:57:10.199Z,4.00
2022-08-11T01:59:49.805Z,3.78
2022-08-11T02:02:46.071Z,3.70
2022-08-11T02:05:45.968Z,3.47
2022-08-11T02:08:41.860Z,3.47
2022-08-11T02:11:35.107Z,3.38
2022-08-11T02:14:28.125Z,3.47
2022-08-11T02:17:20.605Z,3.72
2022-08-11T02:20:33.967Z,4.13
2022-08-11T02:24:04.350Z,3.53
2022-08-11T02:26:42.767Z,3.45
2022-08-11T02:29:18.689Z,3.40
2022-08-11T02:32:30.694Z,4.13
2022-08-11T02:35:25.510Z,4.55
2022-08-11T02:38:17.841Z,4.22
2022-08-11T02:41:45.158Z,3.45
2022-08-11T02:44:47.940Z,4.00
2022-08-11T02:48:13.365Z,4.00
2022-08-11T02:50:53.167Z,3.40
2022-08-11T02:54:10.021Z,3.67
2022-08-11T02:56:52.366Z,3.30
2022-08-11T03:00:09.794Z,3.72
2022-08-11T03:03:13.349Z,3.30
2022-08-11T03:06:07.172Z,4.32
2022-08-11T03:08:52.593Z,3.80
2022-08-11T03:11:44.961Z,4.13
2022-08-11T03:15:05.892Z,3.50
2022-08-11T03:18:19.234Z,3.90
2022-08-11T03:21:15.784Z,3.47
2022-08-11T03:24:33.188Z,3.50
2022-08-11T03:27:19.837Z,3.70
2022-08-11T03:30:23.973Z,3.35
2022-08-11T03:33:32.289Z,4.10
2022-08-11T03:36:30.142Z,3.85
2022-08-11T03:39:18.149Z,3.60
2022-08-11T03:42:10.288Z,4.20
2022-08-11T03:44:59.998Z,3.88
2022-08-11T03:48:05.024Z,4.30
2022-08-11T03:50:55.169Z,4.03
2022-08-11T03:53:49.607Z,4.45
2022-08-11T03:56:47.095Z,4.10
2022-08-11T03:59:58.270Z,3.90
2022-08-11T04:02:44.113Z,3.63
2022-08-11T04:05:36.541Z,3.88
2022-08-11T04:08:39.876Z,3.63
2022-08-11T04:11:49.576Z,3.75
2022-08-11T04:14:52.935Z,4.18
2022-08-11T04:18:04.861Z,4.05
2022-08-11T04:21:01.415Z,3.60
2022-08-11T04:24:33.078Z,3.97
2022-08-11T04:27:05.028Z,3.78
2022-08-11T04:30:05.924Z,4.00
2022-08-11T04:33:34.226Z,3.40
2022-08-11T04:36:50.952Z,3.42
2022-08-11T04:39:59.040Z,3.60
2022-08-11T04:43:21.137Z,3.28
2022-08-11T04:46:19.284Z,4.35
2022-08-11T04:49:45.728Z,3.60
2022-08-11T04:53:01.326Z,3.53
2022-08-11T04:56:14.193Z,3.53
2022-08-11T04:59:33.608Z,3.33
2022-08-11T05:02:16.671Z,3.25
2022-08-11T05:05:32.937Z,3.38
2022-08-11T05:08:43.028Z,3.13
2022-08-11T05:11:57.944Z,3.53
2022-08-11T05:15:09.088Z,3.40
2022-08-11T05:18:33.818Z,2.95
2022-08-11T05:21:26.562Z,2.88
2022-08-11T05:24:32.603Z,2.47
2022-08-11T05:27:22.020Z,2.60
2022-08-11T05:30:16.915Z,2.60
2022-08-11T05:33:05.474Z,2.85
2022-08-11T05:36:00.089Z,2.90
2022-08-11T05:38:53.399Z,2.35
2022-08-11T05:41:44.723Z,2.72
2022-08-11T05:44:37.888Z,2.50
2022-08-11T05:47:23.649Z,2.47
2022-08-11T05:50:13.373Z,2.67
2022-08-11T05:53:09.163Z,2.25
2022-08-11T05:56:04.385Z,2.58
2022-08-11T05:58:43.664Z,2.70
2022-08-11T06:01:26.932Z,2.30
2022-08-11T06:04:14.962Z,2.40
2022-08-11T06:07:06.346Z,2.35
2022-08-11T06:09:39.053Z,2.35
2022-08-11T06:12:30.974Z,1.95
2022-08-11T06:15:07.814Z,2.45
2022-08-11T06:17:47.343Z,2.10
2022-08-11T06:20:16.632Z,2.40
2022-08-11T06:22:53.039Z,2.53
2022-08-11T06:25:20.807Z,2.35
2022-08-11T06:27:56.467Z,2.20
2022-08-11T06:30:44.434Z,1.92
2022-08-11T06:33:30.010Z,2.35
2022-08-11T06:36:28.454Z,2.28
2022-08-11T06:39:48.377Z,2.00
2022-08-11T06:42:40.694Z,2.00
2022-08-11T06:45:26.117Z,1.90
2022-08-11T06:47:54.419Z,1.88
2022-08-11T06:50:41.970Z,2.10
2022-08-11T06:53:10.679Z,1.90
2022-08-11T06:56:01.394Z,1.90
2022-08-11T06:58:54.737Z,2.03
2022-08-11T07:01:49.249Z,2.03
2022-08-11T07:04:43.755Z,2.00
2022-08-11T07:08:34.716Z,1.73
2022-08-11T07:12:00.797Z,1.70
2022-08-11T07:14:49.214Z,1.83
2022-08-11T07:17:21.073Z,2.20
2022-08-11T07:20:26.495Z,2.03
2022-08-11T07:23:18.379Z,2.00
2022-08-11T07:26:10.193Z,1.70
2022-08-11T07:28:56.167Z,1.95
2022-08-11T07:31:29.700Z,1.90
2022-08-11T07:34:23.416Z,1.80
2022-08-11T07:36:57.997Z,1.98
2022-08-11T07:39:28.167Z,1.85
2022-08-11T07:41:58.844Z,1.88
2022-08-11T07:44:35.045Z,2.03
2022-08-11T07:47:21.637Z,2.10
2022-08-11T07:50:09.755Z,1.95
2022-08-11T07:52:38.375Z,1.73
2022-08-11T07:55:12.352Z,1.90
2022-08-11T07:58:15.090Z,1.92
2022-08-11T08:01:16.013Z,1.73
2022-08-11T08:04:07.406Z,1.75
2022-08-11T08:06:53.913Z,2.00
2022-08-11T08:09:41.006Z,2.22
2022-08-11T08:12:27.955Z,2.03
2022-08-11T08:15:14.993Z,1.80
2022-08-11T08:18:09.287Z,1.98
2022-08-11T08:20:46.742Z,2.60
2022-08-11T08:23:13.944Z,2.75
2022-08-11T08:25:44.221Z,2.10
2022-08-11T08:28:16.631Z,1.60
2022-08-11T08:30:48.011Z,1.73
2022-08-11T08:33:23.629Z,1.67
2022-08-11T08:36:16.364Z,3.00
2022-08-11T08:38:49.899Z,1.98
2022-08-11T08:41:28.844Z,2.10
2022-08-11T08:44:27.774Z,2.00
2022-08-11T08:46:55.510Z,2.13
2022-08-11T08:49:50.530Z,2.15
2022-08-11T08:52:32.229Z,2.20
2022-08-11T08:55:05.483Z,1.60
2022-08-11T08:57:38.849Z,1.52
2022-08-11T09:00:08.892Z,1.40
2022-08-11T09:02:40.392Z,1.70
2022-08-11T09:05:10.477Z,1.88
2022-08-11T09:07:38.932Z,1.70
2022-08-11T09:10:11.638Z,1.60
2022-08-11T09:12:41.706Z,1.40
2022-08-11T09:15:11.874Z,1.20
2022-08-11T09:17:47.428Z,1.20
2022-08-11T09:20:20.712Z,1.30
2022-08-11T09:26:19.357Z,1.27
2022-08-11T09:28:47.636Z,2.17
2022-08-11T09:31:15.978Z,1.48
2022-08-11T09:33:44.772Z,1.20
2022-08-11T09:36:32.573Z,1.30
2022-08-11T09:39:21.733Z,1.10
2022-08-11T09:42:00.781Z,1.10
2022-08-11T09:44:48.908Z,1.30
2022-08-11T09:47:30.571Z,1.13
2022-08-11T09:50:02.364Z,1.08
2022-08-11T09:52:36.891Z,0.85
2022-08-11T09:55:11.235Z,1.15
2022-08-11T09:58:05.866Z,0.90
2022-08-11T10:00:40.265Z,1.00
2022-08-11T10:03:17.518Z,1.13
2022-08-11T10:06:08.120Z,1.20
2022-08-11T10:08:39.642Z,1.05
2022-08-11T10:11:12.105Z,0.93
2022-08-11T10:14:34.063Z,1.00
2022-08-11T10:16:52.206Z,0.98
2022-08-11T10:19:22.162Z,1.05
2022-08-11T10:22:12.813Z,1.10
2022-08-11T10:25:01.282Z,1.70
2022-08-11T10:27:55.198Z,1.25
2022-08-11T10:30:34.019Z,1.00
2022-08-11T10:33:37.230Z,1.27
2022-08-11T10:36:16.635Z,1.42
2022-08-11T10:38:46.856Z,1.45
2022-08-11T10:41:33.350Z,1.20
2022-08-11T10:44:03.988Z,1.42
2022-08-11T10:46:51.024Z,1.10
2022-08-11T10:49:20.450Z,1.10
2022-08-11T10:52:06.855Z,1.58
2022-08-11T10:54:53.760Z,4.22
2022-08-11T10:57:40.973Z,2.95
2022-08-11T11:00:15.143Z,1.30
2022-08-11T11:02:44.692Z,1.10
2022-08-11T11:05:32.765Z,1.45
2022-08-11T11:08:35.166Z,1.20
2022-08-11T11:11:05.746Z,1.30
2022-08-11T11:13:57.271Z,1.35
2022-08-11T11:16:44.327Z,1.30
2022-08-11T11:19:15.298Z,2.30
2022-08-11T11:21:43.063Z,1.40
2022-08-11T11:24:42.930Z,1.40
2022-08-11T11:27:31.466Z,1.23
2022-08-11T11:30:08.346Z,1.02
2022-08-11T11:32:35.298Z,1.10
2022-08-11T11:35:23.939Z,1.00
2022-08-11T11:38:01.896Z,1.88
2022-08-11T11:40:32.654Z,1.10
2022-08-11T11:43:00.299Z,1.67
2022-08-11T11:45:27.618Z,1.40
2022-08-11T11:47:58.374Z,1.20
2022-08-11T11:50:32.782Z,0.93
2022-08-11T11:53:03.797Z,1.15
2022-08-11T11:55:31.818Z,1.08
2022-08-11T11:58:20.212Z,1.10
2022-08-11T12:01:10.238Z,1.85
2022-08-11T12:03:38.256Z,1.20
2022-08-11T12:06:07.319Z,1.65
2022-08-11T12:08:35.703Z,1.90
2022-08-11T12:11:24.384Z,0.85
2022-08-11T12:13:53.822Z,1.13
2022-08-11T12:16:35.314Z,1.10
2022-08-11T12:19:11.539Z,1.00
2022-08-11T12:22:00.837Z,0.98
2022-08-11T12:24:49.192Z,1.00
2022-08-11T12:27:24.926Z,0.95
2022-08-11T12:30:00.278Z,1.10
2022-08-11T12:32:33.251Z,1.35
2022-08-11T12:35:01.571Z,1.13
2022-08-11T12:37:40.607Z,2.17
2022-08-11T12:40:50.019Z,1.40
2022-08-11T12:43:41.323Z,1.10
2022-08-11T12:46:14.606Z,1.15
2022-08-11T12:49:07.125Z,0.98
2022-08-11T12:52:00.856Z,1.00
2022-08-11T12:54:59.035Z,1.17
2022-08-11T12:58:04.708Z,0.93
2022-08-11T13:00:51.956Z,1.27
2022-08-11T13:03:42.529Z,1.17
2022-08-11T13:06:10.994Z,1.10
2022-08-11T13:08:40.779Z,1.15
2022-08-11T13:11:57.018Z,1.20
2022-08-11T13:14:16.954Z,1.90
2022-08-11T13:17:04.474Z,1.40
2022-08-11T13:19:32.306Z,2.13
2022-08-11T13:22:02.420Z,1.30
2022-08-11T13:24:30.181Z,1.20
2022-08-11T13:26:58.483Z,1.20
2022-08-11T13:29:27.876Z,1.35
2022-08-11T13:32:00.442Z,1.73
2022-08-11T13:34:32.857Z,1.50
2022-08-11T13:37:05.272Z,0.98
2022-08-11T13:39:35.112Z,1.50
2022-08-11T13:42:03.928Z,1.55
2022-08-11T13:44:34.982Z,1.33
2022-08-11T13:47:05.399Z,1.38
2022-08-11T13:49:39.759Z,1.60
2022-08-11T13:52:13.175Z,1.25
2022-08-11T13:54:42.663Z,1.13
2022-08-11T13:57:13.668Z,1.17
2022-08-11T14:00:12.229Z,1.00
2022-08-11T14:02:53.721Z,1.33
2022-08-11T14:05:28.854Z,1.27
2022-08-11T14:08:01.905Z,1.30
2022-08-11T14:10:33.099Z,1.10
2022-08-11T14:13:29.374Z,1.10
2022-08-11T14:16:20.631Z,1.20
2022-08-11T14:18:52.720Z,1.10
2022-08-11T14:21:42.627Z,1.08
2022-08-11T14:24:11.706Z,0.98
2022-08-11T14:26:43.509Z,1.20
2022-08-11T14:31:59.163Z,0.98
2022-08-11T14:34:30.222Z,1.30
2022-08-11T14:37:15.313Z,1.00
2022-08-11T14:39:47.531Z,1.10
2022-08-11T14:42:36.947Z,1.33
2022-08-11T14:45:57.539Z,1.30
2022-08-11T14:48:26.750Z,1.52
2022-08-11T14:50:53.962Z,1.65
2022-08-11T14:53:23.469Z,1.08
2022-08-11T14:56:09.951Z,1.13
2022-08-11T14:58:37.422Z,1.40
2022-08-11T15:01:25.037Z,1.20
2022-08-11T15:04:06.163Z,1.10
2022-08-11T15:06:39.880Z,1.25
2022-08-11T15:09:09.047Z,1.05
2022-08-11T15:11:55.426Z,1.20
2022-08-11T15:14:41.522Z,1.30
2022-08-11T15:17:10.313Z,1.30
2022-08-11T15:20:00.409Z,1.50
2022-08-11T15:22:46.601Z,1.63
2022-08-11T15:25:13.857Z,1.20
2022-08-11T15:28:01.715Z,1.38
2022-08-11T15:30:48.492Z,1.30
2022-08-11T15:33:36.961Z,1.40
2022-08-11T15:36:26.836Z,1.30
2022-08-11T15:39:02.627Z,1.42
2022-08-11T15:42:09.975Z,1.63
2022-08-11T15:45:03.711Z,1.13
2022-08-11T15:47:41.786Z,1.20
2022-08-11T15:50:15.813Z,1.50
2022-08-11T15:53:07.920Z,1.23
2022-08-11T15:55:37.742Z,1.70
2022-08-11T15:58:27.691Z,2.03
2022-08-11T16:01:14.526Z,2.30
2022-08-11T16:04:12.611Z,1.20
2022-08-11T16:06:58.406Z,1.30
2022-08-11T16:09:48.157Z,1.27
2022-08-11T16:12:32.091Z,1.20
2022-08-11T16:15:23.208Z,1.50
2022-08-11T16:17:59.862Z,1.20
2022-08-11T16:20:29.658Z,1.10
2022-08-11T16:23:02.437Z,1.30
2022-08-11T16:27:07.218Z,1.70
2022-08-11T16:28:23.449Z,1.45
2022-08-11T16:30:51.221Z,1.40
2022-08-11T16:33:22.678Z,1.17
2022-08-11T16:36:30.926Z,1.35
2022-08-11T16:38:59.571Z,1.50
2022-08-11T16:41:55.430Z,1.23
2022-08-11T16:44:42.652Z,1.70
2022-08-11T16:47:17.292Z,1.27
2022-08-11T16:49:52.712Z,1.70
2022-08-11T16:52:22.410Z,1.35
2022-08-11T16:54:49.774Z,1.40
2022-08-11T16:57:45.549Z,1.40
2022-08-11T17:00:17.566Z,1.70
2022-08-11T17:03:12.414Z,1.95
2022-08-11T17:06:09.212Z,1.52
2022-08-11T17:09:06.252Z,1.67
2022-08-11T17:12:01.370Z,1.52
2022-08-11T17:14:55.924Z,1.30
2022-08-11T17:17:37.679Z,1.40
2022-08-11T17:20:39.743Z,1.50
2022-08-11T17:23:17.801Z,1.63
2022-08-11T17:25:59.646Z,1.40
2022-08-11T17:28:33.676Z,1.90
2022-08-11T17:31:22.619Z,1.70
2022-08-11T17:34:09.643Z,1.42
2022-08-11T17:36:41.577Z,1.70
2022-08-11T17:39:13.420Z,1.80
2022-08-11T17:41:59.336Z,1.70
2022-08-11T17:44:45.874Z,1.85
2022-08-11T17:47:32.876Z,1.60
2022-08-11T17:50:09.248Z,1.88
2022-08-11T17:53:05.330Z,1.50
2022-08-11T17:55:54.409Z,1.85
2022-08-11T17:58:41.212Z,3.10
2022-08-11T18:01:11.654Z,2.30
2022-08-11T18:03:57.841Z,1.98
2022-08-11T18:06:34.170Z,2.15
2022-08-11T18:09:24.386Z,2.13
2022-08-11T18:12:12.914Z,2.00
2022-08-11T18:15:04.585Z,1.90
2022-08-11T18:17:51.200Z,2.00
2022-08-11T18:20:38.330Z,2.00
2022-08-11T18:23:41.698Z,2.05
2022-08-11T18:26:36.670Z,5.65
2022-08-11T18:29:24.853Z,4.22
2022-08-11T18:32:22.037Z,2.33
2022-08-11T18:35:11.254Z,2.53
2022-08-11T18:38:06.284Z,2.30
2022-08-11T18:40:54.270Z,2.72
2022-08-11T18:43:43.837Z,1.98
2022-08-11T18:46:32.205Z,7.90
2022-08-11T18:50:03.583Z,7.60
2022-08-11T18:52:42.479Z,5.15
2022-08-11T18:55:35.666Z,3.58
2022-08-11T18:58:26.667Z,3.17
2022-08-11T19:01:17.289Z,5.82
2022-08-11T19:04:10.622Z,7.03
2022-08-11T19:06:58.882Z,4.00
2022-08-11T19:09:46.240Z,3.17
2022-08-11T19:12:33.013Z,2.90
2022-08-11T19:15:21.184Z,2.88
2022-08-11T19:18:07.538Z,2.92
2022-08-11T19:20:54.437Z,2.78
2022-08-11T19:23:58.845Z,2.47
2022-08-11T19:26:44.894Z,2.80
2022-08-11T19:30:04.865Z,2.67
2022-08-11T19:32:39.045Z,2.67
2022-08-11T19:35:26.522Z,2.30
2022-08-11T19:38:13.858Z,2.30
2022-08-11T19:41:00.792Z,2.50
2022-08-11T19:43:49.311Z,2.53
2022-08-11T19:46:39.302Z,2.80
2022-08-11T19:49:25.726Z,2.70
2022-08-11T19:52:12.057Z,2.63
2022-08-11T19:54:59.418Z,3.03
2022-08-11T19:57:45.361Z,3.45
2022-08-11T20:00:36.434Z,3.60
2022-08-11T20:03:27.963Z,4.05
2022-08-11T20:06:16.460Z,3.15
2022-08-11T20:09:05.488Z,3.38
2022-08-11T20:11:56.526Z,3.45
2022-08-11T20:14:45.133Z,2.72
2022-08-11T20:17:32.317Z,2.88
2022-08-11T20:20:22.717Z,2.90
2022-08-11T20:23:11.764Z,3.00
2022-08-11T20:26:08.543Z,2.35
2022-08-11T20:29:04.800Z,2.75
2022-08-11T20:31:51.369Z,2.50
2022-08-11T20:34:37.089Z,2.55
2022-08-11T20:37:25.057Z,2.75
2022-08-11T20:40:13.790Z,2.42
2022-08-11T20:43:01.245Z,2.55
2022-08-11T20:45:55.260Z,2.50
2022-08-11T20:48:45.642Z,2.70
2022-08-11T20:51:36.711Z,2.45
2022-08-11T20:54:38.297Z,2.45
2022-08-11T20:57:35.636Z,2.50
2022-08-11T21:00:39.082Z,2.65
2022-08-11T21:03:35.416Z,2.67
2022-08-11T21:06:31.196Z,2.60
2022-08-11T21:09:23.960Z,2.50
2022-08-11T21:12:28.829Z,2.60
2022-08-11T21:15:15.270Z,2.60
2022-08-11T21:18:27.543Z,3.00
2022-08-11T21:21:18.273Z,2.90
2022-08-11T21:24:07.597Z,2.70
2022-08-11T21:27:03.442Z,3.38
2022-08-11T21:29:53.053Z,3.47
2022-08-11T21:32:41.184Z,3.42
2022-08-11T21:35:28.087Z,4.10
2022-08-11T21:38:15.803Z,4.15
2022-08-11T21:41:01.712Z,3.38
2022-08-11T21:43:50.991Z,2.80
2022-08-11T21:46:40.108Z,2.80
2022-08-11T21:49:28.632Z,2.85
2022-08-11T21:52:14.515Z,2.83
2022-08-11T21:55:00.441Z,3.00
2022-08-11T21:57:48.200Z,3.67
2022-08-11T22:00:35.756Z,4.18
2022-08-11T22:03:21.592Z,4.32
2022-08-11T22:06:08.245Z,3.60
2022-08-11T22:08:53.908Z,3.45
2022-08-11T22:11:39.919Z,3.85
2022-08-11T22:14:25.266Z,3.13
2022-08-11T22:17:10.584Z,3.05
2022-08-11T22:19:58.092Z,2.97
2022-08-11T22:22:51.280Z,3.35
2022-08-11T22:25:51.326Z,3.67
2022-08-11T22:28:41.098Z,2.80
2022-08-11T22:31:29.171Z,2.90
2022-08-11T22:34:15.310Z,2.97
2022-08-11T22:37:02.702Z,2.88
2022-08-11T22:40:02.160Z,2.88
2022-08-11T22:42:51.294Z,3.10
2022-08-11T22:45:38.134Z,3.42
2022-08-11T22:48:25.028Z,2.78
2022-08-11T22:51:12.593Z,2.97
2022-08-11T22:53:59.693Z,3.15
2022-08-11T22:56:50.827Z,3.00
2022-08-11T22:59:38.746Z,3.25
2022-08-11T23:02:26.114Z,2.53
2022-08-11T23:05:12.895Z,3.00
2022-08-11T23:08:00.252Z,3.25
2022-08-11T23:10:46.588Z,3.47
2022-08-11T23:13:32.523Z,3.47
2022-08-11T23:16:21.122Z,3.22
2022-08-11T23:19:08.134Z,3.60
2022-08-11T23:21:54.965Z,3.67
2022-08-11T23:24:44.053Z,3.58
2022-08-11T23:27:30.872Z,3.50
2022-08-11T23:30:19.751Z,3.92
2022-08-11T23:33:09.856Z,3.45
2022-08-11T23:36:04.559Z,3.38
2022-08-11T23:38:51.419Z,3.55
2022-08-11T23:41:37.909Z,3.70
2022-08-11T23:44:25.359Z,3.13
2022-08-11T23:47:17.976Z,3.63
2022-08-11T23:50:06.024Z,3.50
2022-08-11T23:52:54.136Z,3.50
2022-08-11T23:55:40.024Z,4.20
2022-08-11T23:58:26.585Z,3.08
